Time;durP1;ratioP1;P1;durP2;ratioP2;P2;SDS_P1;SDS_P2;PMS_P1;PMS_P2;Temp;Humidity;BMP_temperature;BMP_pressure;BME280_temperature;BME280_humidity;BME280_pressure;Samples;Min_cycle;Max_cycle;Signal;HPM_P1;HPM_P2
2023/10/08 00:00:49;;;;;;;11.80;3.95;;;16.70;99.90;;;;;;5030735;28;20060;-84
2023/10/08 00:03:20;;;;;;;9.55;4.00;;;16.70;99.90;;;;;;5030357;28;20063;-84
2023/10/08 00:05:46;;;;;;;8.43;3.38;;;16.90;99.90;;;;;;5029511;28;21070;-84
2023/10/08 00:08:14;;;;;;;7.07;3.60;;;16.90;99.90;;;;;;5031191;28;20107;-85
2023/10/08 00:10:44;;;;;;;9.25;3.47;;;17.10;99.90;;;;;;5030228;28;20028;-84
2023/10/08 00:13:17;;;;;;;11.45;3.58;;;17.10;99.90;;;;;;5028731;28;20660;-84
2023/10/08 00:15:53;;;;;;;6.35;3.20;;;17.20;99.90;;;;;;5029507;28;20131;-84
2023/10/08 00:18:23;;;;;;;7.75;3.88;;;17.20;99.90;;;;;;5029608;28;20037;-84
2023/10/08 00:21:06;;;;;;;7.88;3.47;;;17.20;99.90;;;;;;5030896;28;20116;-84
2023/10/08 00:23:35;;;;;;;8.55;3.88;;;17.10;99.90;;;;;;5030046;28;20029;-84
2023/10/08 00:26:06;;;;;;;6.45;3.60;;;17.10;99.90;;;;;;5031648;28;20385;-84
2023/10/08 00:28:32;;;;;;;7.65;3.58;;;17.00;99.90;;;;;;5036030;28;20143;-84
2023/10/08 00:31:12;;;;;;;7.57;3.40;;;16.90;99.90;;;;;;5035577;28;21064;-84
2023/10/08 00:33:39;;;;;;;8.57;3.72;;;16.80;99.90;;;;;;5033664;28;20582;-84
2023/10/08 00:36:17;;;;;;;5.57;3.25;;;16.80;99.90;;;;;;5035748;28;20041;-85
2023/10/08 00:38:51;;;;;;;9.30;3.70;;;16.80;99.90;;;;;;5036064;28;20794;-85
2023/10/08 00:41:24;;;;;;;6.63;3.22;;;16.80;99.90;;;;;;5034187;28;20553;-84
2023/10/08 00:43:50;;;;;;;8.50;3.42;;;16.80;99.90;;;;;;5035020;28;20053;-84
2023/10/08 00:46:29;;;;;;;7.10;3.28;;;16.80;99.90;;;;;;5034222;28;20040;-84
2023/10/08 00:48:55;;;;;;;6.80;3.40;;;16.80;99.90;;;;;;5034514;28;20508;-85
2023/10/08 00:51:40;;;;;;;8.68;3.72;;;16.80;99.90;;;;;;5035030;28;20051;-84
2023/10/08 00:54:17;;;;;;;6.18;3.50;;;16.80;99.90;;;;;;5034985;28;20039;-84
2023/10/08 00:59:20;;;;;;;7.30;3.72;;;16.80;99.90;;;;;;5036308;28;20036;-84
2023/10/08 01:01:51;;;;;;;6.10;3.33;;;16.80;99.90;;;;;;5037700;28;20042;-84
2023/10/08 01:04:26;;;;;;;6.88;3.15;;;16.80;99.90;;;;;;5038709;28;20033;-85
2023/10/08 01:07:01;;;;;;;;;;;16.80;99.90;;;;;;5043122;28;20065;-83
2023/10/08 01:09:35;;;;;;;7.43;3.38;;;16.80;99.90;;;;;;5056669;28;19921;-85
2023/10/08 01:15:04;;;;;;;9.40;3.70;;;16.80;99.90;;;;;;5026627;28;20037;-84
2023/10/08 01:17:32;;;;;;;6.57;3.10;;;16.80;99.90;;;;;;5034155;28;20102;-84
2023/10/08 01:20:19;;;;;;;7.65;3.42;;;16.80;99.90;;;;;;5032908;28;20025;-84
2023/10/08 01:22:44;;;;;;;6.25;3.00;;;16.80;99.90;;;;;;5032520;28;20041;-84
2023/10/08 01:25:10;;;;;;;6.65;3.28;;;16.80;99.90;;;;;;5031673;28;20043;-84
2023/10/08 01:27:37;;;;;;;7.07;3.47;;;16.80;99.90;;;;;;5032479;28;20040;-84
2023/10/08 01:30:17;;;;;;;9.80;3.50;;;16.80;99.90;;;;;;5032441;28;20086;-84
2023/10/08 01:32:44;;;;;;;6.55;3.70;;;16.80;99.90;;;;;;5032808;28;20047;-84
2023/10/08 01:35:22;;;;;;;8.35;3.53;;;16.70;99.90;;;;;;5032707;28;20025;-84
2023/10/08 01:37:50;;;;;;;7.35;3.30;;;16.70;99.90;;;;;;5032030;28;20036;-84
2023/10/08 01:40:16;;;;;;;8.05;3.38;;;16.70;99.90;;;;;;5031076;28;20031;-84
2023/10/08 01:42:42;;;;;;;8.02;3.65;;;16.70;99.90;;;;;;5031439;28;20044;-84
2023/10/08 01:45:10;;;;;;;6.97;3.40;;;16.70;99.90;;;;;;5030980;28;20053;-84
2023/10/08 01:47:35;;;;;;;7.95;3.38;;;16.70;99.90;;;;;;5030477;28;20044;-84
2023/10/08 01:50:05;;;;;;;7.65;3.40;;;16.70;99.90;;;;;;5030065;28;20033;-84
2023/10/08 01:52:32;;;;;;;9.68;4.22;;;16.60;99.90;;;;;;5030557;28;20025;-84
2023/10/08 01:54:57;;;;;;;8.90;3.40;;;16.60;99.90;;;;;;5028801;28;20064;-84
2023/10/08 01:57:23;;;;;;;7.15;3.30;;;16.60;99.90;;;;;;5028888;28;20054;-84
2023/10/08 01:59:49;;;;;;;8.85;3.92;;;16.60;99.90;;;;;;5028790;28;20037;-84
2023/10/08 02:02:17;;;;;;;9.32;3.28;;;16.60;99.90;;;;;;5028992;28;20091;-85
2023/10/08 02:04:43;;;;;;;12.02;3.95;;;16.60;99.90;;;;;;5028500;28;20021;-84
2023/10/08 02:07:12;;;;;;;11.38;3.65;;;16.60;99.90;;;;;;5034025;28;20049;-83
2023/10/08 02:09:39;;;;;;;8.75;3.65;;;16.60;99.90;;;;;;5032390;28;20053;-84
2023/10/08 02:12:04;;;;;;;10.10;3.72;;;16.60;99.90;;;;;;5032004;28;20038;-84
2023/10/08 02:14:31;;;;;;;7.63;3.53;;;16.60;99.90;;;;;;5031217;28;20108;-84
2023/10/08 02:17:01;;;;;;;7.60;3.83;;;16.70;99.90;;;;;;5032271;28;20045;-84
2023/10/08 02:19:27;;;;;;;7.63;3.70;;;16.70;99.90;;;;;;5031481;28;20045;-84
2023/10/08 02:21:57;;;;;;;7.65;3.70;;;16.70;99.90;;;;;;5031686;28;20352;-84
2023/10/08 02:24:24;;;;;;;8.93;3.83;;;16.70;99.90;;;;;;5031105;28;20026;-84
2023/10/08 02:26:57;;;;;;;11.18;3.70;;;16.70;99.90;;;;;;5032498;28;20141;-84
2023/10/08 02:29:25;;;;;;;7.00;3.55;;;16.70;99.90;;;;;;5030030;28;20037;-84
2023/10/08 02:31:53;;;;;;;9.15;3.70;;;16.70;99.90;;;;;;5031654;28;20041;-84
2023/10/08 02:34:19;;;;;;;7.07;3.35;;;16.70;99.90;;;;;;5031518;28;20472;-84
2023/10/08 02:36:46;;;;;;;8.52;3.88;;;16.70;99.90;;;;;;5031746;28;20036;-84
2023/10/08 02:39:13;;;;;;;9.15;3.85;;;16.70;99.90;;;;;;5029185;28;20092;-84
2023/10/08 02:41:42;;;;;;;6.05;3.42;;;16.70;99.90;;;;;;5031150;28;20030;-84
2023/10/08 02:44:13;;;;;;;6.80;3.20;;;16.70;99.90;;;;;;5031212;28;20032;-84
2023/10/08 02:46:48;;;;;;;10.55;4.30;;;16.70;99.90;;;;;;5029404;28;20064;-84
2023/10/08 02:49:22;;;;;;;8.50;3.65;;;16.80;99.90;;;;;;5031807;28;20037;-84
2023/10/08 02:51:50;;;;;;;7.20;3.65;;;16.80;99.90;;;;;;5032472;28;20052;-84
2023/10/08 02:54:18;;;;;;;7.40;3.47;;;16.80;99.90;;;;;;5030506;28;20041;-84
2023/10/08 02:57:00;;;;;;;6.90;3.40;;;16.80;99.90;;;;;;5031601;28;20026;-84
2023/10/08 02:59:38;;;;;;;6.72;3.55;;;16.80;99.90;;;;;;5030954;28;20025;-84
2023/10/08 03:02:04;;;;;;;6.97;3.42;;;16.90;99.90;;;;;;5030158;28;20079;-85
2023/10/08 03:04:30;;;;;;;5.88;3.65;;;16.90;99.90;;;;;;5030249;28;20489;-84
2023/10/08 03:06:56;;;;;;;7.70;3.05;;;16.90;99.90;;;;;;5030106;28;20041;-84
2023/10/08 03:09:31;;;;;;;11.93;3.53;;;17.00;99.90;;;;;;5030774;28;20036;-84
2023/10/08 03:11:58;;;;;;;9.20;3.95;;;17.00;99.90;;;;;;5030645;28;20059;-84
2023/10/08 03:14:26;;;;;;;6.20;3.28;;;17.00;99.90;;;;;;5029775;28;20052;-84
2023/10/08 03:16:53;;;;;;;5.80;3.13;;;16.90;99.90;;;;;;5030795;28;20435;-84
2023/10/08 03:19:21;;;;;;;10.10;3.28;;;16.90;99.90;;;;;;5030572;28;20037;-84
2023/10/08 03:21:51;;;;;;;6.75;3.42;;;16.90;99.90;;;;;;5030902;28;20022;-85
2023/10/08 03:24:37;;;;;;;7.13;3.45;;;17.00;99.90;;;;;;5030076;28;20119;-84
2023/10/08 03:27:07;;;;;;;9.05;3.45;;;17.00;99.90;;;;;;5029677;28;20468;-85
2023/10/08 03:29:40;;;;;;;7.57;3.70;;;17.00;99.90;;;;;;5028613;28;20042;-84
2023/10/08 03:32:14;;;;;;;6.53;3.63;;;17.00;99.90;;;;;;5029503;28;20052;-84
2023/10/08 03:34:45;;;;;;;7.17;3.00;;;17.00;99.90;;;;;;5026924;28;20078;-84
2023/10/08 03:37:19;;;;;;;8.55;3.08;;;17.10;99.90;;;;;;5029351;28;20029;-84
2023/10/08 03:39:52;;;;;;;8.48;3.20;;;17.10;99.90;;;;;;5029261;28;20044;-84
2023/10/08 03:42:24;;;;;;;7.57;2.95;;;17.10;99.90;;;;;;5029150;28;20060;-84
2023/10/08 03:44:51;;;;;;;7.35;3.35;;;17.10;99.90;;;;;;5031369;28;20037;-85
2023/10/08 03:47:22;;;;;;;10.63;3.83;;;17.00;99.90;;;;;;5031207;28;20117;-84
2023/10/08 03:49:50;;;;;;;10.20;3.30;;;17.10;99.90;;;;;;5031501;28;20112;-84
2023/10/08 03:52:17;;;;;;;8.18;3.60;;;17.10;99.90;;;;;;5033514;28;20037;-84
2023/10/08 03:54:48;;;;;;;7.30;3.97;;;17.10;99.90;;;;;;5034475;28;20045;-85
2023/10/08 03:57:14;;;;;;;8.63;3.33;;;17.10;99.90;;;;;;5036375;28;20040;-84
2023/10/08 03:59:40;;;;;;;7.78;3.97;;;17.00;99.90;;;;;;5033685;28;20032;-84
2023/10/08 04:02:23;;;;;;;7.47;3.33;;;17.00;99.90;;;;;;5035239;28;20037;-85
2023/10/08 04:04:56;;;;;;;9.30;3.95;;;17.00;99.90;;;;;;5035457;28;20041;-84
2023/10/08 04:07:26;;;;;;;6.50;3.10;;;17.00;99.90;;;;;;5046485;28;20018;-86
2023/10/08 04:10:17;;;;;;;10.48;3.85;;;17.00;99.90;;;;;;5054897;28;20021;-85
2023/10/08 04:12:44;;;;;;;9.13;2.90;;;17.00;99.90;;;;;;5048782;28;20144;-84
2023/10/08 04:15:16;;;;;;;13.23;3.97;;;17.00;99.90;;;;;;5030648;28;20068;-84
2023/10/08 04:17:45;;;;;;;7.63;3.22;;;17.00;99.90;;;;;;5029971;28;20038;-84
2023/10/08 04:20:32;;;;;;;8.65;3.50;;;17.00;99.90;;;;;;5030621;28;20025;-84
2023/10/08 04:22:59;;;;;;;6.40;3.38;;;17.00;99.90;;;;;;5030328;28;20051;-84
2023/10/08 04:25:29;;;;;;;6.53;2.90;;;16.90;99.90;;;;;;5028937;28;20113;-84
2023/10/08 04:27:59;;;;;;;11.30;3.45;;;16.90;99.90;;;;;;5029693;28;21334;-84
2023/10/08 04:30:33;;;;;;;10.63;3.88;;;16.90;99.90;;;;;;5029379;28;20017;-84
2023/10/08 04:33:11;;;;;;;9.55;3.95;;;16.80;99.90;;;;;;5029594;28;20485;-84
2023/10/08 04:35:48;;;;;;;9.45;3.25;;;16.80;99.90;;;;;;5028362;28;20104;-84
2023/10/08 04:38:21;;;;;;;10.27;4.00;;;16.70;99.90;;;;;;5029012;28;20419;-84
2023/10/08 04:40:53;;;;;;;11.90;3.60;;;16.70;99.90;;;;;;5029911;28;20554;-84
2023/10/08 04:43:27;;;;;;;8.18;3.40;;;16.70;99.90;;;;;;5030329;28;20025;-84
2023/10/08 04:45:56;;;;;;;12.05;3.95;;;16.70;99.90;;;;;;5029524;28;20040;-83
2023/10/08 04:48:23;;;;;;;9.35;3.80;;;16.70;99.90;;;;;;5028098;28;20030;-84
2023/10/08 04:50:58;;;;;;;11.27;3.92;;;16.60;99.90;;;;;;5029086;28;20036;-83
2023/10/08 04:53:40;;;;;;;7.70;3.63;;;16.60;99.90;;;;;;5027622;28;20105;-84
2023/10/08 04:56:13;;;;;;;13.77;3.28;;;16.60;99.90;;;;;;5028013;28;20841;-84
2023/10/08 04:58:46;;;;;;;7.95;3.47;;;16.50;99.90;;;;;;5029135;28;20171;-84
2023/10/08 05:01:38;;;;;;;11.95;4.00;;;16.50;99.90;;;;;;5029008;28;20072;-84
2023/10/08 05:19:48;;;;;;;11.40;3.83;;;16.20;99.90;;;;;;5031008;28;20775;-83
2023/10/08 05:22:18;;;;;;;10.77;3.67;;;16.20;99.90;;;;;;5029674;28;21849;-83
2023/10/08 05:30:17;;;;;;;10.35;3.70;;;16.00;99.90;;;;;;5031598;28;20065;-84
2023/10/08 05:35:48;;;;;;;9.52;3.80;;;15.90;99.90;;;;;;5031742;28;20118;-85
2023/10/08 05:38:22;;;;;;;7.88;3.40;;;15.80;99.90;;;;;;5032229;28;20041;-83
2023/10/08 05:43:55;;;;;;;7.57;3.25;;;15.80;99.90;;;;;;5029535;28;20044;-84
2023/10/08 05:46:39;;;;;;;9.63;3.83;;;15.80;99.90;;;;;;5029390;28;20051;-84
2023/10/08 05:54:35;;;;;;;7.85;3.53;;;15.90;99.90;;;;;;5030416;28;20099;-83
2023/10/08 05:59:52;;;;;;;6.30;3.35;;;16.00;99.90;;;;;;5029920;28;20060;-83
2023/10/08 06:13:04;;;;;;;8.40;3.00;;;16.00;99.90;;;;;;5029913;28;20037;-84
2023/10/08 06:18:28;;;;;;;9.10;3.75;;;16.00;99.90;;;;;;5026168;28;20506;-86
2023/10/08 06:20:55;;;;;;;9.15;3.95;;;16.00;99.90;;;;;;5026115;28;20026;-87
2023/10/08 06:23:22;;;;;;;8.40;3.70;;;16.10;99.90;;;;;;5024277;28;20034;-86
2023/10/08 06:26:05;;;;;;;6.22;3.28;;;16.10;99.90;;;;;;5024502;28;20053;-87
2023/10/08 06:28:34;;;;;;;6.30;3.22;;;16.10;99.90;;;;;;5024136;28;20563;-86
2023/10/08 06:31:06;;;;;;;8.63;3.78;;;16.10;99.90;;;;;;5025730;28;20468;-86
2023/10/08 06:33:33;;;;;;;7.28;3.53;;;16.10;99.90;;;;;;5026156;28;20037;-86
2023/10/08 06:36:02;;;;;;;9.68;3.75;;;16.10;99.90;;;;;;5023665;28;20029;-86
2023/10/08 06:38:30;;;;;;;7.30;3.30;;;16.10;99.90;;;;;;5025340;28;20945;-86
2023/10/08 06:41:00;;;;;;;6.85;3.63;;;16.10;99.90;;;;;;5025125;28;20052;-86
2023/10/08 06:43:26;;;;;;;8.43;3.60;;;16.10;99.90;;;;;;5022229;28;20041;-86
2023/10/08 06:45:52;;;;;;;19.17;4.07;;;16.10;99.90;;;;;;5023398;28;21460;-84
2023/10/08 06:48:25;;;;;;;18.30;5.28;;;16.20;99.90;;;;;;5026010;28;20064;-85
2023/10/08 06:50:56;;;;;;;8.13;4.03;;;16.30;99.90;;;;;;5025269;28;20059;-77
2023/10/08 06:53:22;;;;;;;10.27;4.60;;;16.30;99.90;;;;;;5023905;28;20041;-76
2023/10/08 06:55:48;;;;;;;8.82;3.95;;;16.40;99.90;;;;;;5024724;28;20554;-84
2023/10/08 06:58:17;;;;;;;10.35;3.50;;;16.50;99.90;;;;;;5027882;28;20029;-83
2023/10/08 07:00:46;;;;;;;10.07;3.17;;;16.60;99.90;;;;;;5029614;28;20100;-74
2023/10/08 07:03:17;;;;;;;10.02;4.03;;;16.70;99.90;;;;;;5031834;28;20029;-85
2023/10/08 07:06:00;;;;;;;7.85;3.58;;;16.70;99.90;;;;;;5037313;28;20037;-83
2023/10/08 07:08:31;;;;;;;10.32;3.78;;;16.90;99.90;;;;;;5052692;28;20048;-83
2023/10/08 07:11:00;;;;;;;12.07;4.05;;;17.00;99.90;;;;;;5053834;28;20040;-85
2023/10/08 07:13:29;;;;;;;10.93;3.67;;;17.00;99.90;;;;;;5031413;28;20060;-84
2023/10/08 07:15:55;;;;;;;14.18;4.38;;;17.20;99.90;;;;;;5030549;28;20021;-83
2023/10/08 07:18:29;;;;;;;12.90;4.05;;;17.20;99.90;;;;;;5027820;28;20120;-83
2023/10/08 07:20:55;;;;;;;10.90;3.92;;;17.30;99.90;;;;;;5025761;28;20037;-83
2023/10/08 07:23:29;;;;;;;9.93;3.55;;;17.40;99.90;;;;;;5024300;28;20526;-85
2023/10/08 07:26:10;;;;;;;14.55;4.32;;;17.60;99.90;;;;;;5022728;28;20518;-82
2023/10/08 07:28:42;;;;;;;12.50;3.97;;;17.70;99.90;;;;;;5024475;28;20024;-83
2023/10/08 07:31:15;;;;;;;9.60;3.88;;;17.90;99.90;;;;;;5024373;28;20555;-83
2023/10/08 07:33:44;;;;;;;11.82;4.22;;;18.00;99.90;;;;;;5025253;28;20643;-82
2023/10/08 07:36:14;;;;;;;11.00;3.30;;;18.10;99.90;;;;;;5023842;28;20041;-82
2023/10/08 07:38:42;;;;;;;12.93;4.38;;;18.20;99.90;;;;;;5025618;28;20385;-81
2023/10/08 07:41:13;;;;;;;10.88;3.95;;;18.20;99.90;;;;;;5026118;28;20072;-81
2023/10/08 07:43:39;;;;;;;12.13;3.60;;;18.30;99.90;;;;;;5024827;28;20032;-81
2023/10/08 07:46:05;;;;;;;13.27;3.53;;;18.40;99.90;;;;;;5027254;28;21015;-82
2023/10/08 07:48:31;;;;;;;10.20;3.30;;;18.40;99.90;;;;;;5026848;28;20029;-82
2023/10/08 07:50:57;;;;;;;10.75;3.38;;;18.40;99.90;;;;;;5024599;28;20040;-80
2023/10/08 07:53:24;;;;;;;12.50;3.80;;;18.50;99.90;;;;;;5025684;28;20017;-81
2023/10/08 07:55:50;;;;;;;11.55;3.80;;;18.50;99.90;;;;;;5023472;28;20822;-86
2023/10/08 07:58:19;;;;;;;11.80;4.10;;;18.60;99.90;;;;;;5023478;28;20033;-86
2023/10/08 08:00:51;;;;;;;10.88;3.83;;;18.60;99.90;;;;;;5023018;28;20104;-86
2023/10/08 08:03:18;;;;;;;10.52;3.58;;;18.60;99.90;;;;;;5023402;28;20037;-87
2023/10/08 08:05:44;;;;;;;10.25;3.95;;;18.60;99.90;;;;;;5022564;28;20057;-87
2023/10/08 08:08:14;;;;;;;12.43;4.10;;;18.60;99.90;;;;;;5023644;28;20133;-86
2023/10/08 08:10:43;;;;;;;12.82;3.63;;;18.60;99.90;;;;;;5037970;28;20025;-87
2023/10/08 08:13:09;;;;;;;12.52;3.80;;;18.60;99.90;;;;;;5024038;28;20518;-84
2023/10/08 08:15:40;;;;;;;9.77;3.63;;;18.70;99.90;;;;;;5024286;28;20028;-86
2023/10/08 08:18:18;;;;;;;15.43;3.90;;;18.70;99.90;;;;;;5024628;28;20048;-85
2023/10/08 08:20:44;;;;;;;10.02;3.58;;;18.80;99.90;;;;;;5022412;28;20029;-82
2023/10/08 08:23:09;;;;;;;10.93;3.88;;;18.80;99.90;;;;;;5023340;28;20021;-84
2023/10/08 08:28:24;;;;;;;12.45;3.90;;;18.90;99.90;;;;;;5025157;28;20130;-83
2023/10/08 08:30:52;;;;;;;17.90;3.63;;;18.90;99.90;;;;;;5024899;28;20457;-83
2023/10/08 08:33:22;;;;;;;20.25;4.22;;;18.90;99.90;;;;;;5024163;28;20037;-84
2023/10/08 08:36:00;;;;;;;17.80;4.47;;;18.90;99.90;;;;;;5023300;28;20047;-84
2023/10/08 08:38:29;;;;;;;16.88;4.65;;;18.90;99.90;;;;;;5023523;28;20073;-84
2023/10/08 08:41:06;;;;;;;13.25;4.25;;;18.90;99.90;;;;;;5020152;28;20568;-84
2023/10/08 08:43:36;;;;;;;23.73;4.68;;;18.90;99.90;;;;;;5016037;28;20064;-84
2023/10/08 08:46:10;;;;;;;16.80;3.70;;;18.90;99.90;;;;;;5016973;28;20037;-85
2023/10/08 08:48:38;;;;;;;12.70;4.32;;;18.90;99.90;;;;;;5021145;28;20506;-87
2023/10/08 08:51:06;;;;;;;16.50;4.40;;;18.90;99.90;;;;;;5020679;28;20113;-87
2023/10/08 08:53:33;;;;;;;12.63;4.50;;;18.90;99.90;;;;;;5021044;28;20030;-86
2023/10/08 08:56:03;;;;;;;12.90;4.15;;;18.90;99.90;;;;;;5020044;28;20982;-88
2023/10/08 08:58:33;;;;;;;14.80;4.05;;;18.80;99.90;;;;;;5020632;28;20025;-88
2023/10/08 09:01:00;;;;;;;13.10;3.75;;;18.90;99.90;;;;;;5021432;28;20032;-87
2023/10/08 09:03:31;;;;;;;17.13;3.67;;;19.00;99.90;;;;;;5020520;28;21503;-87
2023/10/08 09:05:59;;;;;;;11.25;3.95;;;19.00;99.90;;;;;;5019861;28;20037;-86
2023/10/08 09:08:33;;;;;;;11.77;4.30;;;19.00;99.90;;;;;;5021398;28;20407;-82
2023/10/08 09:11:00;;;;;;;15.38;3.97;;;19.10;99.90;;;;;;5024119;28;21585;-80
2023/10/08 09:13:28;;;;;;;13.18;4.20;;;19.20;99.90;;;;;;5021895;28;20032;-86
2023/10/08 09:16:07;;;;;;;13.90;4.40;;;19.20;99.90;;;;;;5019524;28;20036;-86
2023/10/08 09:18:33;;;;;;;13.80;4.97;;;19.20;99.90;;;;;;5017703;28;20037;-87
2023/10/08 09:21:22;;;;;;;16.88;3.67;;;19.30;99.90;;;;;;5019264;28;20091;-87
2023/10/08 09:23:54;;;;;;;15.30;4.63;;;19.20;99.90;;;;;;5020155;28;20025;-87
2023/10/08 09:26:26;;;;;;;12.30;4.35;;;19.20;99.90;;;;;;5016827;28;20036;-88
2023/10/08 09:28:53;;;;;;;15.63;4.10;;;19.10;99.90;;;;;;5018886;28;20090;-87
2023/10/08 09:31:23;;;;;;;12.85;4.10;;;19.10;99.90;;;;;;5019294;28;20108;-87
2023/10/08 09:33:55;;;;;;;15.38;3.72;;;19.10;99.90;;;;;;5019049;28;20846;-87
2023/10/08 09:36:31;;;;;;;11.23;3.97;;;19.10;99.90;;;;;;5018232;28;20112;-87
2023/10/08 09:39:01;;;;;;;19.65;3.63;;;19.10;99.90;;;;;;5020632;28;20033;-87
2023/10/08 09:41:31;;;;;;;11.93;4.40;;;19.10;99.90;;;;;;5019500;28;20026;-87
2023/10/08 09:43:59;;;;;;;10.98;3.40;;;19.10;99.90;;;;;;5019476;28;20396;-87
2023/10/08 09:46:31;;;;;;;16.15;3.83;;;19.10;99.90;;;;;;5018410;28;20555;-87
2023/10/08 09:49:01;;;;;;;16.58;4.20;;;19.20;99.90;;;;;;5020897;28;20040;-86
2023/10/08 09:51:30;;;;;;;11.98;3.53;;;19.30;99.90;;;;;;5019415;28;20950;-86
2023/10/08 09:54:15;;;;;;;15.68;4.47;;;19.40;99.90;;;;;;5019118;28;20029;-86
2023/10/08 09:56:43;;;;;;;13.65;4.25;;;19.60;99.90;;;;;;5020526;28;20040;-86
2023/10/08 09:59:09;;;;;;;11.98;4.20;;;19.70;99.90;;;;;;5024027;28;20041;-84
2023/10/08 10:01:37;;;;;;;15.07;4.38;;;19.80;99.90;;;;;;5030384;28;20033;-84
2023/10/08 10:04:08;;;;;;;24.05;4.45;;;19.90;99.90;;;;;;5034867;28;20034;-85
2023/10/08 10:06:36;;;;;;;12.35;4.25;;;20.00;99.90;;;;;;5032935;28;20033;-80
2023/10/08 10:09:01;;;;;;;20.60;4.30;;;20.00;99.90;;;;;;5029161;28;20087;-80
2023/10/08 10:11:29;;;;;;;19.77;4.97;;;20.10;99.90;;;;;;5037621;28;20041;-87
2023/10/08 10:14:01;;;;;;;12.48;3.88;;;20.10;99.90;;;;;;5026418;28;20128;-87
2023/10/08 10:16:27;;;;;;;13.15;4.03;;;20.10;99.90;;;;;;5025653;28;20071;-88
2023/10/08 10:19:00;;;;;;;17.00;4.03;;;20.10;99.90;;;;;;5025954;28;21430;-88
2023/10/08 10:21:33;;;;;;;14.02;4.82;;;20.10;99.90;;;;;;5025178;28;20371;-87
2023/10/08 10:23:59;;;;;;;14.32;4.20;;;20.10;99.90;;;;;;5025909;28;20033;-91
2023/10/08 10:26:34;;;;;;;14.70;4.75;;;20.10;99.90;;;;;;5026166;28;20048;-89
2023/10/08 10:29:21;;;;;;;15.18;3.80;;;20.10;99.90;;;;;;5026780;28;20048;-88
2023/10/08 10:31:52;;;;;;;13.38;4.18;;;20.10;99.90;;;;;;5031519;28;20032;-88
2023/10/08 10:34:27;;;;;;;18.65;4.97;;;20.10;99.90;;;;;;5026049;28;20033;-86
2023/10/08 10:36:59;;;;;;;;;;;20.10;99.90;;;;;;5025026;28;20492;-87
2023/10/08 10:39:31;;;;;;;11.45;4.32;;;20.00;99.90;;;;;;5024849;28;19916;-84
2023/10/08 10:42:03;;;;;;;16.45;4.35;;;19.90;99.90;;;;;;5024658;28;20033;-90
2023/10/08 10:44:29;;;;;;;16.67;4.82;;;19.90;99.90;;;;;;5023352;28;20091;-89
2023/10/08 10:49:53;;;;;;;20.58;4.40;;;19.70;99.90;;;;;;5024934;28;20607;-90
2023/10/08 10:52:32;;;;;;;10.38;4.00;;;19.80;99.90;;;;;;5023827;28;20072;-90
2023/10/08 10:57:56;;;;;;;16.05;4.35;;;19.70;99.90;;;;;;5023619;28;20124;-89
2023/10/08 11:03:02;;;;;;;15.00;4.43;;;19.70;99.90;;;;;;5023395;28;20887;-90
2023/10/08 11:05:37;;;;;;;15.40;4.32;;;19.70;99.90;;;;;;5025204;28;20092;-88
2023/10/08 11:08:05;;;;;;;14.98;4.55;;;19.70;99.90;;;;;;5025247;28;20045;-90
2023/10/08 11:10:38;;;;;;;18.60;4.57;;;19.70;99.90;;;;;;5024995;28;20436;-88
2023/10/08 11:13:14;;;;;;;15.80;3.88;;;19.70;99.90;;;;;;5027906;28;20038;-88
2023/10/08 11:15:59;;;;;;;16.13;3.83;;;19.70;99.90;;;;;;5024162;28;20033;-88
2023/10/08 11:18:29;;;;;;;15.63;3.88;;;19.60;99.90;;;;;;5026676;28;20408;-87
2023/10/08 11:21:22;;;;;;;15.45;4.30;;;19.60;99.90;;;;;;5025560;28;20075;-87
2023/10/08 11:23:55;;;;;;;15.07;4.25;;;19.60;99.90;;;;;;5022279;28;20033;-86
2023/10/08 11:26:32;;;;;;;17.33;4.63;;;19.50;99.90;;;;;;5023627;28;20056;-86
2023/10/08 11:29:02;;;;;;;13.18;5.18;;;19.40;99.90;;;;;;5027225;28;20029;-84
2023/10/08 11:31:29;;;;;;;17.60;4.30;;;19.40;99.90;;;;;;5025082;28;20480;-88
2023/10/08 11:34:08;;;;;;;18.50;4.13;;;19.30;99.90;;;;;;5023640;28;20120;-90
2023/10/08 11:36:48;;;;;;;16.25;3.72;;;19.30;99.90;;;;;;5024151;28;20099;-90
2023/10/08 11:39:21;;;;;;;13.43;4.55;;;19.20;99.90;;;;;;5023506;28;20147;-90
2023/10/08 11:42:02;;;;;;;14.73;3.75;;;19.20;99.90;;;;;;5023502;28;20570;-90
2023/10/08 11:44:30;;;;;;;12.63;3.63;;;19.20;99.90;;;;;;5021067;28;20036;-90
2023/10/08 11:47:04;;;;;;;14.57;4.38;;;19.20;99.90;;;;;;5023734;28;20408;-90
2023/10/08 11:49:32;;;;;;;19.58;4.65;;;19.20;99.90;;;;;;5025401;28;20082;-90
2023/10/08 11:52:00;;;;;;;23.00;4.65;;;19.30;99.90;;;;;;5024268;28;20052;-88
2023/10/08 11:54:27;;;;;;;20.30;5.13;;;19.30;99.90;;;;;;5023623;28;20065;-89
2023/10/08 11:56:53;;;;;;;14.88;5.32;;;19.20;99.90;;;;;;5022829;28;20044;-89
2023/10/08 11:59:18;;;;;;;16.85;4.93;;;19.20;99.90;;;;;;5022982;28;20021;-83
2023/10/08 12:01:46;;;;;;;20.15;4.20;;;19.20;99.90;;;;;;5022173;28;21416;-90
2023/10/08 12:04:16;;;;;;;15.13;4.32;;;19.20;99.90;;;;;;5021709;28;20477;-87
2023/10/08 12:06:51;;;;;;;16.48;4.72;;;19.20;99.90;;;;;;5021679;28;20124;-89
2023/10/08 12:09:18;;;;;;;14.13;4.45;;;19.20;99.90;;;;;;5023187;28;20029;-88
2023/10/08 12:11:44;;;;;;;13.63;4.03;;;19.20;99.90;;;;;;5023307;28;20177;-88
2023/10/08 12:14:10;;;;;;;16.08;4.07;;;19.20;99.90;;;;;;5022492;28;20549;-89
2023/10/08 12:16:36;;;;;;;13.75;3.80;;;19.30;99.90;;;;;;5022412;28;20781;-89
2023/10/08 12:19:15;;;;;;;17.05;4.28;;;19.30;99.90;;;;;;5022317;28;20037;-88
2023/10/08 12:21:41;;;;;;;14.75;4.70;;;19.20;99.90;;;;;;5021973;28;20119;-88
2023/10/08 12:24:12;;;;;;;14.40;5.10;;;19.30;99.90;;;;;;5022108;28;20435;-88
2023/10/08 12:26:42;;;;;;;18.38;4.60;;;19.20;99.90;;;;;;5023324;28;20034;-88
2023/10/08 12:29:08;;;;;;;10.82;3.70;;;19.20;99.90;;;;;;5023244;28;20025;-88
2023/10/08 12:31:33;;;;;;;17.27;4.03;;;19.20;99.90;;;;;;5024614;28;20037;-88
2023/10/08 12:34:00;;;;;;;12.88;3.97;;;19.10;99.90;;;;;;5023032;28;20032;-88
2023/10/08 12:36:27;;;;;;;11.88;4.00;;;19.20;99.90;;;;;;5023276;28;20033;-87
2023/10/08 12:38:59;;;;;;;14.27;4.40;;;19.20;99.90;;;;;;5022935;28;20496;-86
2023/10/08 12:41:28;;;;;;;17.90;4.72;;;19.10;99.90;;;;;;5021617;28;20071;-89
2023/10/08 12:43:54;;;;;;;15.10;4.03;;;19.10;99.90;;;;;;5022243;28;20056;-85
2023/10/08 12:46:24;;;;;;;17.83;5.05;;;19.10;99.90;;;;;;5020969;28;20488;-87
2023/10/08 12:48:53;;;;;;;17.60;4.55;;;19.10;99.90;;;;;;5022756;28;20044;-87
2023/10/08 12:51:26;;;;;;;16.42;5.53;;;19.10;99.90;;;;;;5022049;28;20489;-90
2023/10/08 12:53:58;;;;;;;18.90;4.20;;;19.20;99.90;;;;;;5023257;28;20028;-91
2023/10/08 12:56:31;;;;;;;18.05;3.90;;;19.20;99.90;;;;;;5023846;28;20022;-91
2023/10/08 12:58:58;;;;;;;14.80;3.92;;;19.20;99.90;;;;;;5023171;28;20029;-89
2023/10/08 13:01:28;;;;;;;15.95;3.75;;;19.30;99.90;;;;;;5025081;28;20025;-90
2023/10/08 13:03:59;;;;;;;21.10;4.93;;;19.30;99.90;;;;;;5025097;28;20411;-88
2023/10/08 13:06:28;;;;;;;13.52;3.72;;;19.40;99.90;;;;;;5026654;28;20052;-89
2023/10/08 13:08:55;;;;;;;17.65;3.80;;;19.50;99.90;;;;;;5028657;28;20052;-90
2023/10/08 13:11:25;;;;;;;13.15;3.53;;;19.60;99.90;;;;;;5024314;28;20025;-89
2023/10/08 13:13:58;;;;;;;14.63;3.80;;;19.70;99.90;;;;;;5021578;28;20114;-90
2023/10/08 13:16:25;;;;;;;14.90;4.03;;;19.70;99.90;;;;;;5022082;28;20034;-90
2023/10/08 13:18:52;;;;;;;12.75;3.60;;;19.80;99.90;;;;;;5023537;28;20124;-91
2023/10/08 13:21:19;;;;;;;19.35;6.53;;;19.90;99.90;;;;;;5023771;28;20116;-90
2023/10/08 13:23:46;;;;;;;14.73;4.95;;;19.90;99.90;;;;;;5021460;28;20029;-89
2023/10/08 13:26:16;;;;;;;19.50;8.55;;;20.00;99.90;;;;;;5019942;28;20056;-89
2023/10/08 13:28:44;;;;;;;18.02;6.32;;;20.00;99.90;;;;;;5021586;28;22136;-89
2023/10/08 13:31:11;;;;;;;20.58;5.35;;;20.10;99.90;;;;;;5028883;28;20064;-88
2023/10/08 13:33:42;;;;;;;17.15;4.20;;;20.10;99.90;;;;;;5037447;28;20036;-88
2023/10/08 13:36:13;;;;;;;23.48;5.22;;;20.20;99.90;;;;;;5026898;28;20049;-88
2023/10/08 13:38:40;;;;;;;15.50;4.03;;;20.30;99.90;;;;;;5027328;28;20133;-89
2023/10/08 13:41:14;;;;;;;19.88;4.32;;;20.30;99.90;;;;;;5026232;28;20496;-88
2023/10/08 13:43:48;;;;;;;17.83;4.50;;;20.40;99.90;;;;;;5024104;28;20037;-89
2023/10/08 13:46:19;;;;;;;13.90;3.47;;;20.40;99.90;;;;;;5027859;28;20506;-87
2023/10/08 13:48:47;;;;;;;15.25;3.75;;;20.50;99.90;;;;;;5032630;28;20021;-90
2023/10/08 13:51:14;;;;;;;14.32;4.03;;;20.50;99.90;;;;;;5033011;28;20026;-90
2023/10/08 13:53:44;;;;;;;11.68;4.47;;;20.40;99.90;;;;;;5034931;28;20857;-90
2023/10/08 13:56:11;;;;;;;15.43;3.70;;;20.40;99.90;;;;;;5026343;28;20093;-90
2023/10/08 13:58:41;;;;;;;15.32;3.90;;;20.40;99.90;;;;;;5026559;28;20052;-90
2023/10/08 14:01:18;;;;;;;12.77;3.70;;;20.40;99.90;;;;;;5032011;28;20119;-91
2023/10/08 14:03:47;;;;;;;11.35;3.67;;;20.40;99.90;;;;;;5033295;28;20691;-91